createdAt,value
2022-11-25T00:00:08.694Z,51.361
2022-11-25T00:01:17.277Z,51.361
2022-11-25T00:02:25.972Z,51.355
2022-11-25T00:03:35.515Z,51.379002
2022-11-25T00:04:45.009Z,51.379002
2022-11-25T00:05:53.588Z,51.379002
2022-11-25T00:07:03.175Z,51.373001
2022-11-25T00:08:11.781Z,51.384998
2022-11-25T00:09:20.382Z,51.367001
2022-11-25T00:10:29.948Z,51.362999
2022-11-25T00:11:38.518Z,51.338001
2022-11-25T00:12:48.106Z,51.338001
2022-11-25T00:13:56.717Z,51.362999
2022-11-25T00:15:05.290Z,51.368999
2022-11-25T00:16:14.899Z,51.368999
2022-11-25T00:17:23.436Z,51.387001
2022-11-25T00:18:32.130Z,51.393002
2022-11-25T00:19:40.718Z,51.393002
2022-11-25T00:20:50.291Z,51.398998
2022-11-25T00:21:59.864Z,51.405998
2022-11-25T00:23:07.458Z,51.438
2022-11-25T00:24:15.151Z,51.438
2022-11-25T00:25:24.658Z,51.431999
2022-11-25T00:26:34.200Z,51.438
2022-11-25T00:27:42.782Z,51.419998
2022-11-25T00:28:50.366Z,51.419998
2022-11-25T00:29:58.935Z,51.419998
2022-11-25T00:31:08.505Z,51.411999
2022-11-25T00:32:16.075Z,51.425999
2022-11-25T00:33:24.659Z,51.419998
2022-11-25T00:34:34.599Z,51.421001
2022-11-25T00:35:42.813Z,51.445999
2022-11-25T00:36:52.387Z,51.433998
2022-11-25T00:38:00.997Z,51.458
2022-11-25T00:39:09.566Z,51.452
2022-11-25T00:40:19.153Z,51.470001
2022-11-25T00:41:27.845Z,51.452
2022-11-25T00:42:35.390Z,51.445999
2022-11-25T00:43:44.989Z,51.458
2022-11-25T00:44:54.557Z,51.493999
2022-11-25T00:46:03.227Z,51.500999
2022-11-25T00:47:12.705Z,51.521
2022-11-25T00:48:21.292Z,51.508999
2022-11-25T00:49:30.870Z,51.527
2022-11-25T00:50:38.441Z,51.527
2022-11-25T00:51:47.008Z,51.527
2022-11-25T00:52:56.583Z,51.528999
2022-11-25T00:54:05.180Z,51.515999
2022-11-25T00:55:14.750Z,51.504002
2022-11-25T00:56:23.332Z,51.498001
2022-11-25T00:57:31.941Z,51.498001
2022-11-25T00:58:41.527Z,51.504002
2022-11-25T00:59:50.073Z,51.509998
2022-11-25T01:00:59.733Z,51.528999
2022-11-25T01:02:07.298Z,51.522999
2022-11-25T01:03:15.813Z,51.535
2022-11-25T01:04:25.410Z,51.553001
2022-11-25T01:05:34.972Z,51.547001
2022-11-25T01:06:43.554Z,51.541
2022-11-25T01:07:52.145Z,51.547001
2022-11-25T01:09:00.707Z,51.547001
2022-11-25T01:10:10.277Z,51.547001
2022-11-25T01:11:17.848Z,51.564999
2022-11-25T01:12:27.417Z,51.577
2022-11-25T01:13:37.055Z,51.583
2022-11-25T01:14:46.603Z,51.604
2022-11-25T01:15:54.163Z,51.604
2022-11-25T01:17:02.735Z,51.612999
2022-11-25T01:18:12.315Z,51.620998
2022-11-25T01:19:22.209Z,51.639999
2022-11-25T01:20:30.789Z,51.639999
2022-11-25T01:21:38.354Z,51.675999
2022-11-25T01:22:47.951Z,51.675999
2022-11-25T01:23:56.527Z,51.695
2022-11-25T01:25:05.104Z,51.707001
2022-11-25T01:26:14.693Z,51.695
2022-11-25T01:27:23.247Z,51.701
2022-11-25T01:28:32.858Z,51.695
2022-11-25T01:29:41.448Z,51.707001
2022-11-25T01:30:51.008Z,51.724998
2022-11-25T01:32:00.688Z,51.724998
2022-11-25T01:33:10.179Z,51.730999
2022-11-25T01:34:18.753Z,51.713001
2022-11-25T01:35:27.333Z,51.743
2022-11-25T01:36:36.920Z,51.75
2022-11-25T01:37:46.512Z,51.724998
2022-11-25T01:38:54.086Z,51.762001
2022-11-25T01:40:01.655Z,51.75
2022-11-25T01:41:11.235Z,51.762001
2022-11-25T01:42:19.815Z,51.776001
2022-11-25T01:43:27.395Z,51.756001
2022-11-25T01:44:37.125Z,51.75
2022-11-25T01:45:45.630Z,51.75
2022-11-25T01:46:55.108Z,51.756001
2022-11-25T01:48:02.675Z,51.737
2022-11-25T01:49:11.257Z,51.730999
2022-11-25T01:50:20.833Z,51.701
2022-11-25T01:51:29.397Z,51.695
2022-11-25T01:52:37.976Z,51.695
2022-11-25T01:53:46.576Z,51.681999
2022-11-25T01:54:55.120Z,51.681999
2022-11-25T01:56:04.692Z,51.669998
2022-11-25T01:57:14.263Z,51.688
2022-11-25T01:58:21.835Z,51.701
2022-11-25T01:59:31.413Z,51.688
2022-11-25T02:00:39.970Z,51.675999
2022-11-25T02:01:48.564Z,51.688
2022-11-25T02:02:58.100Z,51.678001
2022-11-25T02:04:06.674Z,51.672001
2022-11-25T02:05:16.243Z,51.681999
2022-11-25T02:06:23.802Z,51.675999
2022-11-25T02:07:31.438Z,51.640999
2022-11-25T02:08:40.956Z,51.633999
2022-11-25T02:09:49.529Z,51.623001
2022-11-25T02:10:58.094Z,51.611
2022-11-25T02:12:06.680Z,51.605
2022-11-25T02:13:15.267Z,51.611
2022-11-25T02:14:24.845Z,51.623001
2022-11-25T02:15:33.434Z,51.629002
2022-11-25T02:16:41.009Z,51.598999
2022-11-25T02:17:50.590Z,51.611
2022-11-25T02:19:00.152Z,51.623001
2022-11-25T02:20:08.718Z,51.605
2022-11-25T02:21:18.288Z,51.605
2022-11-25T02:22:27.939Z,51.611
2022-11-25T02:23:37.519Z,51.611
2022-11-25T02:24:45.093Z,51.623001
2022-11-25T02:25:52.656Z,51.605
2022-11-25T02:27:02.233Z,51.629002
2022-11-25T02:28:10.823Z,51.629002
2022-11-25T02:29:19.413Z,51.605
2022-11-25T02:30:28.966Z,51.617001
2022-11-25T02:31:37.598Z,51.605
2022-11-25T02:32:47.125Z,51.598999
2022-11-25T02:33:54.713Z,51.605
2022-11-25T02:35:02.248Z,51.605
2022-11-25T02:36:10.819Z,51.580002
2022-11-25T02:37:20.401Z,51.585999
2022-11-25T02:38:29.037Z,51.580002
2022-11-25T02:39:37.609Z,51.598999
2022-11-25T02:40:46.176Z,51.585999
2022-11-25T02:41:55.761Z,51.568001
2022-11-25T02:43:04.340Z,51.568001
2022-11-25T02:44:13.926Z,51.562
2022-11-25T02:45:23.545Z,51.554001
2022-11-25T02:46:33.081Z,51.574001
2022-11-25T02:47:41.644Z,51.574001
2022-11-25T02:49:08.239Z,51.574001
2022-11-25T02:49:59.783Z,51.563999
2022-11-25T02:51:09.340Z,51.57
2022-11-25T02:52:18.905Z,51.563999
2022-11-25T02:53:27.513Z,51.599998
2022-11-25T02:54:37.365Z,51.588001
2022-11-25T02:55:46.662Z,51.594002
2022-11-25T02:56:56.234Z,51.582001
2022-11-25T02:58:03.800Z,51.57
2022-11-25T02:59:12.390Z,51.594002
2022-11-25T03:00:21.939Z,51.594002
2022-11-25T03:01:29.582Z,51.612999
2022-11-25T03:02:37.136Z,51.612999
2022-11-25T03:03:46.651Z,51.605999
2022-11-25T03:04:55.215Z,51.599998
2022-11-25T03:06:04.807Z,51.605999
2022-11-25T03:07:14.427Z,51.605999
2022-11-25T03:08:23.142Z,51.599998
2022-11-25T03:09:32.730Z,51.599998
2022-11-25T03:10:40.298Z,51.605999
2022-11-25T03:11:47.873Z,51.594002
2022-11-25T03:12:57.434Z,51.582001
2022-11-25T03:14:06.014Z,51.599998
2022-11-25T03:15:14.599Z,51.582001
2022-11-25T03:16:23.215Z,51.576
2022-11-25T03:17:31.742Z,51.57
2022-11-25T03:18:41.338Z,51.551998
2022-11-25T03:19:49.934Z,51.557999
2022-11-25T03:20:57.510Z,51.551998
2022-11-25T03:22:07.125Z,51.582001
2022-11-25T03:23:16.710Z,51.563999
2022-11-25T03:24:25.341Z,51.563999
2022-11-25T03:25:33.904Z,51.582001
2022-11-25T03:26:43.484Z,51.57
2022-11-25T03:27:54.071Z,51.582001
2022-11-25T03:29:02.663Z,51.576
2022-11-25T03:30:11.233Z,51.582001
2022-11-25T03:31:20.927Z,51.582001
2022-11-25T03:32:29.365Z,51.563999
2022-11-25T03:33:37.954Z,51.582001
2022-11-25T03:34:46.534Z,51.563999
2022-11-25T03:35:55.096Z,51.582001
2022-11-25T03:37:04.738Z,51.576
2022-11-25T03:38:12.252Z,51.563999
2022-11-25T03:39:19.825Z,51.576
2022-11-25T03:40:29.405Z,51.57
2022-11-25T03:41:37.972Z,51.576
2022-11-25T03:42:46.538Z,51.563999
2022-11-25T03:43:55.108Z,51.563999
2022-11-25T03:45:03.672Z,51.551998
2022-11-25T03:46:13.339Z,51.557999
2022-11-25T03:47:20.813Z,51.551998
2022-11-25T03:48:28.384Z,51.558998
2022-11-25T03:49:37.972Z,51.547001
2022-11-25T03:50:46.534Z,51.547001
2022-11-25T03:51:55.106Z,51.535
2022-11-25T03:53:03.698Z,51.541
2022-11-25T03:54:13.330Z,51.511002
2022-11-25T03:55:22.890Z,51.504002
2022-11-25T03:56:31.463Z,51.511002
2022-11-25T03:57:40.035Z,51.499001
2022-11-25T03:58:49.639Z,51.486
2022-11-25T03:59:58.203Z,51.492001
2022-11-25T04:01:06.825Z,51.473999
2022-11-25T04:02:15.413Z,51.467999
2022-11-25T04:03:24.953Z,51.467999
2022-11-25T04:04:34.891Z,51.456001
2022-11-25T04:05:42.115Z,51.445999
2022-11-25T04:06:49.678Z,51.423
2022-11-25T04:07:59.301Z,51.423
2022-11-25T04:09:07.863Z,51.421001
2022-11-25T04:10:16.482Z,51.439999
2022-11-25T04:11:26.034Z,51.445999
2022-11-25T04:12:34.613Z,51.421001
2022-11-25T04:13:44.220Z,51.433998
2022-11-25T04:14:51.782Z,51.421001
2022-11-25T04:16:00.395Z,51.415001
2022-11-25T04:17:10.063Z,51.415001
2022-11-25T04:18:18.566Z,51.403
2022-11-25T04:19:27.168Z,51.396999
2022-11-25T04:20:36.792Z,51.370998
2022-11-25T04:21:49.372Z,51.376999
2022-11-25T04:22:55.942Z,51.363998
2022-11-25T04:24:03.543Z,51.352001
2022-11-25T04:25:11.136Z,51.34
2022-11-25T04:26:20.753Z,51.34
2022-11-25T04:27:30.384Z,51.346001
2022-11-25T04:28:38.948Z,51.358002
2022-11-25T04:29:47.520Z,51.352001
2022-11-25T04:30:57.172Z,51.363998
2022-11-25T04:32:06.669Z,51.370998
2022-11-25T04:33:14.261Z,51.390999
2022-11-25T04:34:21.838Z,51.396999
2022-11-25T04:35:31.426Z,51.403
2022-11-25T04:36:41.000Z,51.403
2022-11-25T04:37:49.573Z,51.426998
2022-11-25T04:38:59.148Z,51.433998
2022-11-25T04:40:08.720Z,51.426998
2022-11-25T04:41:18.293Z,51.421001
2022-11-25T04:42:26.889Z,51.445999
2022-11-25T04:43:34.437Z,51.452
2022-11-25T04:44:52.073Z,51.445999
2022-11-25T04:47:04.172Z,51.445999
2022-11-25T04:48:12.646Z,51.458
2022-11-25T04:49:21.219Z,51.458
2022-11-25T04:50:29.804Z,51.445999
2022-11-25T04:51:38.357Z,51.445999
2022-11-25T04:52:47.938Z,51.458
2022-11-25T04:53:55.505Z,51.439999
2022-11-25T04:55:03.067Z,51.445999
2022-11-25T04:56:13.621Z,51.458
2022-11-25T04:57:22.211Z,51.439999
2022-11-25T04:58:30.816Z,51.439999
2022-11-25T04:59:40.397Z,51.445999
2022-11-25T05:00:49.969Z,51.433998
2022-11-25T05:01:59.570Z,51.433998
2022-11-25T05:03:07.094Z,51.433998
2022-11-25T05:04:14.672Z,51.421001
2022-11-25T05:05:24.254Z,51.433998
2022-11-25T05:06:32.815Z,51.433998
2022-11-25T05:07:41.426Z,51.415001
2022-11-25T05:08:50.979Z,51.415001
2022-11-25T05:09:59.543Z,51.426998
2022-11-25T05:11:09.105Z,51.415001
2022-11-25T05:12:16.684Z,51.426998
2022-11-25T05:13:24.246Z,51.415001
2022-11-25T05:14:34.114Z,51.433998
2022-11-25T05:15:43.406Z,51.445999
2022-11-25T05:16:51.021Z,51.433998
2022-11-25T05:17:59.595Z,51.426998
2022-11-25T05:19:09.188Z,51.452
2022-11-25T05:20:17.747Z,51.452
2022-11-25T05:21:25.301Z,51.458
2022-11-25T05:22:32.862Z,51.439999
2022-11-25T05:23:42.433Z,51.458
2022-11-25T05:24:51.010Z,51.439999
2022-11-25T05:26:00.586Z,51.421001
2022-11-25T05:27:09.157Z,51.433998
2022-11-25T05:28:16.712Z,51.433998
2022-11-25T05:29:26.292Z,51.415001
2022-11-25T05:30:34.904Z,51.396999
2022-11-25T05:31:43.415Z,51.376999
2022-11-25T05:32:52.981Z,51.376999
2022-11-25T05:34:01.604Z,51.376999
2022-11-25T05:35:10.167Z,51.376999
2022-11-25T05:36:18.765Z,51.363998
2022-11-25T05:37:28.324Z,51.352001
2022-11-25T05:38:37.889Z,51.334
2022-11-25T05:39:46.484Z,51.316002
2022-11-25T05:40:54.034Z,51.346001
2022-11-25T05:42:03.596Z,51.363998
2022-11-25T05:43:12.225Z,51.346001
2022-11-25T05:44:23.167Z,51.334
2022-11-25T05:45:31.355Z,51.327999
2022-11-25T05:46:39.958Z,51.316002
2022-11-25T05:47:49.509Z,51.291
2022-11-25T05:48:57.083Z,51.291
2022-11-25T05:50:05.668Z,51.278999
2022-11-25T05:51:14.253Z,51.255001
2022-11-25T05:52:22.858Z,51.255001
2022-11-25T05:53:32.425Z,51.261002
2022-11-25T05:54:41.064Z,51.243
2022-11-25T05:55:49.743Z,51.216999
2022-11-25T05:56:59.351Z,51.243
2022-11-25T05:58:07.977Z,51.237
2022-11-25T05:59:16.619Z,51.249001
2022-11-25T06:00:26.813Z,51.243
2022-11-25T06:01:34.791Z,51.249001
2022-11-25T06:02:43.484Z,51.243
2022-11-25T06:03:52.956Z,51.298
2022-11-25T06:05:01.539Z,51.321999
2022-11-25T06:06:11.137Z,51.358002
2022-11-25T06:07:18.751Z,51.390999
2022-11-25T06:08:27.308Z,51.426998
2022-11-25T06:09:36.920Z,51.445999
2022-11-25T06:10:45.505Z,51.470001
2022-11-25T06:11:55.164Z,51.476002
2022-11-25T06:13:03.734Z,51.500999
2022-11-25T06:14:12.333Z,51.522999
2022-11-25T06:15:22.035Z,51.509998
2022-11-25T06:16:29.644Z,51.541
2022-11-25T06:17:38.271Z,51.553001
2022-11-25T06:18:47.858Z,51.570999
2022-11-25T06:19:57.428Z,51.564999
2022-11-25T06:21:06.011Z,51.577999
2022-11-25T06:22:15.599Z,51.570999
2022-11-25T06:23:25.172Z,51.59
2022-11-25T06:24:35.089Z,51.602001
2022-11-25T06:25:42.394Z,51.613998
2022-11-25T06:26:49.959Z,51.613998
2022-11-25T06:28:14.977Z,51.613998
2022-11-25T06:29:10.104Z,51.665001
2022-11-25T06:30:19.716Z,51.676998
2022-11-25T06:31:29.496Z,51.640999
2022-11-25T06:32:38.894Z,51.577999
2022-11-25T06:33:48.469Z,51.486
2022-11-25T06:34:56.071Z,51.355999
2022-11-25T06:36:03.603Z,51.237999
2022-11-25T06:37:13.192Z,51.151001
2022-11-25T06:38:21.772Z,51.115002
2022-11-25T06:39:30.453Z,51.060001
2022-11-25T06:40:39.045Z,51.054001
2022-11-25T06:41:47.582Z,51.118
2022-11-25T06:42:57.151Z,51.222
2022-11-25T06:44:05.742Z,51.375999
2022-11-25T06:45:15.354Z,51.529999
2022-11-25T06:46:25.081Z,51.696999
2022-11-25T06:47:31.582Z,51.852001
2022-11-25T06:48:41.194Z,52.033001
2022-11-25T06:49:49.778Z,52.200001
2022-11-25T06:50:58.372Z,52.396
2022-11-25T06:52:07.933Z,52.582001
2022-11-25T06:53:19.918Z,52.75
2022-11-25T06:54:27.107Z,52.924
2022-11-25T06:55:34.688Z,53.091999
2022-11-25T06:56:43.266Z,53.286999
2022-11-25T06:57:55.903Z,53.460999
2022-11-25T06:59:03.429Z,53.666
2022-11-25T07:00:12.016Z,53.847
2022-11-25T07:01:20.822Z,53.998001
2022-11-25T07:02:33.382Z,54.171001
2022-11-25T07:03:40.942Z,54.34
2022-11-25T07:04:48.572Z,54.509998
2022-11-25T07:05:57.159Z,54.605
2022-11-25T07:07:06.774Z,54.724998
2022-11-25T07:08:16.345Z,54.790001
2022-11-25T07:09:25.008Z,54.889
2022-11-25T07:10:33.607Z,54.955002
2022-11-25T07:11:43.192Z,55.026001
2022-11-25T07:12:52.780Z,55.099998
2022-11-25T07:14:00.360Z,55.139999
2022-11-25T07:15:07.964Z,55.200001
2022-11-25T07:16:17.640Z,55.25
2022-11-25T07:17:26.153Z,55.286999
2022-11-25T07:18:34.803Z,55.339001
2022-11-25T07:19:44.465Z,55.381001
2022-11-25T07:20:53.045Z,55.405998
2022-11-25T07:22:03.623Z,55.431
2022-11-25T07:23:11.235Z,55.467999
2022-11-25T07:24:19.807Z,55.469002
2022-11-25T07:25:30.758Z,55.495998
2022-11-25T07:26:38.044Z,55.508999
2022-11-25T07:27:47.659Z,55.523998
2022-11-25T07:28:56.263Z,55.511002
2022-11-25T07:31:27.009Z,55.535
2022-11-25T07:32:27.019Z,55.535
2022-11-25T07:33:34.599Z,55.547001
2022-11-25T07:34:44.170Z,55.535
2022-11-25T07:35:52.763Z,55.560001
2022-11-25T07:37:01.351Z,55.535
2022-11-25T07:38:09.956Z,55.563999
2022-11-25T07:39:18.589Z,55.563999
2022-11-25T07:40:28.163Z,55.570999
2022-11-25T07:41:36.746Z,55.57
2022-11-25T07:42:45.325Z,55.588001
2022-11-25T07:43:54.915Z,55.57
2022-11-25T07:45:04.488Z,55.562
2022-11-25T07:46:13.158Z,55.562
2022-11-25T07:47:23.663Z,55.542999
2022-11-25T07:48:33.357Z,55.533001
2022-11-25T07:49:42.949Z,55.521
2022-11-25T07:50:51.543Z,55.495998
2022-11-25T07:52:00.115Z,55.501999
2022-11-25T07:53:09.692Z,55.507999
2022-11-25T07:54:18.299Z,55.478001
2022-11-25T07:55:26.926Z,55.485001
2022-11-25T07:56:36.509Z,55.485001
2022-11-25T07:57:45.071Z,55.514
2022-11-25T07:58:54.639Z,55.483002
2022-11-25T08:00:02.237Z,55.470001
2022-11-25T08:01:09.888Z,55.477001
2022-11-25T08:02:19.358Z,55.460999
2022-11-25T08:03:26.918Z,55.448002
2022-11-25T08:04:35.537Z,55.448002
2022-11-25T08:05:44.118Z,55.429001
2022-11-25T08:06:52.674Z,55.403
2022-11-25T08:08:02.335Z,55.388
2022-11-25T08:09:09.794Z,55.363998
2022-11-25T08:10:17.366Z,55.375999
2022-11-25T08:11:26.952Z,55.349998
2022-11-25T08:12:36.497Z,55.342999
2022-11-25T08:13:46.087Z,55.323002
2022-11-25T08:14:54.659Z,55.317001
2022-11-25T08:16:04.240Z,55.277
2022-11-25T08:17:13.816Z,55.271
2022-11-25T08:18:22.380Z,55.27
2022-11-25T08:19:31.991Z,55.27
2022-11-25T08:20:41.567Z,55.244999
2022-11-25T08:21:50.144Z,55.231998
2022-11-25T08:22:58.734Z,55.002998
2022-11-25T08:24:07.310Z,54.519001
2022-11-25T08:25:15.880Z,54.328999
2022-11-25T08:26:25.452Z,54.125
2022-11-25T08:27:33.072Z,54.033001
2022-11-25T08:28:41.601Z,53.911999
2022-11-25T08:29:50.247Z,53.870998
2022-11-25T08:30:58.868Z,53.889999
2022-11-25T08:32:11.701Z,53.84
2022-11-25T08:33:18.036Z,53.846001
2022-11-25T08:34:26.608Z,53.978001
2022-11-25T08:35:35.191Z,53.865002
2022-11-25T08:36:47.897Z,53.953999
2022-11-25T08:37:52.318Z,53.896
2022-11-25T08:39:01.919Z,53.743999
2022-11-25T08:40:12.535Z,53.618999
2022-11-25T08:41:21.101Z,53.68
2022-11-25T08:42:29.686Z,53.855
2022-11-25T08:43:38.304Z,53.861
2022-11-25T08:44:47.985Z,53.882
2022-11-25T08:45:56.569Z,53.877998
2022-11-25T08:47:06.181Z,53.896999
2022-11-25T08:48:13.756Z,53.915001
2022-11-25T08:49:21.374Z,53.93
2022-11-25T08:50:31.042Z,53.942001
2022-11-25T08:51:39.643Z,53.945
2022-11-25T08:52:48.211Z,53.974998
2022-11-25T08:53:57.800Z,53.990002
2022-11-25T08:55:06.436Z,54.007999
2022-11-25T08:56:16.010Z,54.044998
2022-11-25T08:57:26.585Z,54.043999
2022-11-25T08:58:34.180Z,54.049999
2022-11-25T08:59:43.828Z,54.069
2022-11-25T09:00:53.403Z,54.028999
2022-11-25T09:02:02.063Z,53.623001
2022-11-25T09:03:11.765Z,53.485001
2022-11-25T09:04:21.254Z,53.338001
2022-11-25T09:05:30.870Z,53.209
2022-11-25T09:06:39.487Z,53.132999
2022-11-25T09:07:48.139Z,53.077999
2022-11-25T09:08:57.674Z,53.070999
2022-11-25T09:10:06.252Z,53.007999
2022-11-25T09:11:14.917Z,52.987999
2022-11-25T09:12:23.394Z,52.949001
2022-11-25T09:13:31.944Z,52.93
2022-11-25T09:14:41.553Z,52.905998
2022-11-25T09:15:49.162Z,52.851002
2022-11-25T09:16:57.684Z,52.832001
2022-11-25T09:18:06.254Z,52.812
2022-11-25T09:19:14.820Z,52.799999
2022-11-25T09:20:23.398Z,52.780998
2022-11-25T09:21:31.985Z,52.757
2022-11-25T09:22:41.545Z,52.737999
2022-11-25T09:23:51.120Z,52.744999
2022-11-25T09:24:58.684Z,52.757
2022-11-25T09:26:06.245Z,52.708
2022-11-25T09:27:15.834Z,52.708
2022-11-25T09:28:24.387Z,52.776001
2022-11-25T09:29:34.118Z,52.820999
2022-11-25T09:30:42.538Z,52.814999
2022-11-25T09:31:54.887Z,52.820999
2022-11-25T09:33:01.630Z,52.782001
2022-11-25T09:34:09.182Z,52.776001
2022-11-25T09:35:18.773Z,52.808998
2022-11-25T09:36:28.347Z,52.808998
2022-11-25T09:37:38.015Z,52.787998
2022-11-25T09:38:46.529Z,52.776001
2022-11-25T09:39:56.096Z,52.793999
2022-11-25T09:41:04.660Z,52.852001
2022-11-25T09:42:14.274Z,52.863998
2022-11-25T09:43:21.829Z,52.893002
2022-11-25T09:44:29.407Z,52.880001
2022-11-25T09:45:39.047Z,52.868
2022-11-25T09:46:47.634Z,52.854
2022-11-25T09:47:58.172Z,52.841999
2022-11-25T09:49:06.721Z,52.779999
2022-11-25T09:50:16.291Z,52.862
2022-11-25T09:51:25.964Z,52.904999
2022-11-25T09:52:33.528Z,52.942001
2022-11-25T09:53:41.081Z,52.959999
2022-11-25T09:54:50.675Z,52.948002
2022-11-25T09:56:01.563Z,52.953999
2022-11-25T09:57:07.790Z,52.953999
2022-11-25T09:58:16.361Z,52.959999
2022-11-25T09:59:25.930Z,52.948002
2022-11-25T10:00:35.516Z,52.93
2022-11-25T10:01:43.128Z,52.953999
2022-11-25T10:02:52.802Z,52.942001
2022-11-25T10:04:02.252Z,52.928001
2022-11-25T10:05:11.961Z,52.928001
2022-11-25T10:06:20.651Z,52.933998
2022-11-25T10:07:29.181Z,52.928001
2022-11-25T10:08:37.983Z,52.916
2022-11-25T10:09:47.580Z,52.907001
2022-11-25T10:10:57.265Z,52.889
2022-11-25T10:12:04.823Z,52.882999
2022-11-25T10:13:14.572Z,52.882999
2022-11-25T10:14:24.291Z,52.858002
2022-11-25T10:15:32.860Z,52.863998
2022-11-25T10:16:41.433Z,52.846001
2022-11-25T10:17:51.001Z,52.824001
2022-11-25T10:19:00.581Z,52.792999
2022-11-25T10:20:08.174Z,52.799999
2022-11-25T10:21:15.707Z,52.763
2022-11-25T10:22:24.287Z,52.714001
2022-11-25T10:23:32.847Z,52.679001
2022-11-25T10:24:43.020Z,52.624001
2022-11-25T10:25:51.001Z,52.605
2022-11-25T10:27:00.592Z,52.584999
2022-11-25T10:28:10.164Z,52.618
2022-11-25T10:29:17.726Z,52.660999
2022-11-25T10:30:25.297Z,52.691002
2022-11-25T10:31:34.916Z,52.618
2022-11-25T10:32:44.443Z,52.567001
2022-11-25T10:33:53.025Z,52.518002
2022-11-25T10:35:02.603Z,52.487
2022-11-25T10:36:12.197Z,52.469002
2022-11-25T10:37:21.760Z,52.487
2022-11-25T10:38:30.400Z,52.463001
2022-11-25T10:39:38.980Z,52.405998
2022-11-25T10:40:48.562Z,52.416
2022-11-25T10:41:56.136Z,52.365002
2022-11-25T10:43:05.717Z,52.353001
2022-11-25T10:44:14.282Z,52.397999
2022-11-25T10:45:23.874Z,52.41
2022-11-25T10:46:50.006Z,52.428001
2022-11-25T10:47:42.028Z,52.465
2022-11-25T10:48:51.519Z,52.391998
2022-11-25T10:50:00.101Z,52.303001
2022-11-25T10:51:08.654Z,52.303001
2022-11-25T10:52:18.254Z,52.403
2022-11-25T10:53:27.805Z,52.308998
2022-11-25T10:54:36.358Z,52.254002
2022-11-25T10:55:44.950Z,52.223
2022-11-25T10:56:54.501Z,52.172001
2022-11-25T10:58:04.085Z,52.147999
2022-11-25T10:59:12.649Z,52.158001
2022-11-25T11:00:20.265Z,52.165001
2022-11-25T11:01:29.852Z,52.176998
2022-11-25T11:02:38.419Z,52.188999
2022-11-25T11:03:46.936Z,52.152
2022-11-25T11:04:55.554Z,52.171001
2022-11-25T11:06:04.212Z,52.165001
2022-11-25T11:07:13.849Z,52.165001
2022-11-25T11:08:22.349Z,52.139999
2022-11-25T11:09:29.873Z,52.165001
2022-11-25T11:10:39.443Z,52.152
2022-11-25T11:11:49.007Z,52.176998
2022-11-25T11:12:57.563Z,52.226002
2022-11-25T11:14:06.121Z,52.165001
2022-11-25T11:15:14.688Z,52.176998
2022-11-25T11:16:24.343Z,52.171001
2022-11-25T11:17:35.956Z,52.176998
2022-11-25T11:18:40.404Z,52.231998
2022-11-25T11:19:50.159Z,52.243999
2022-11-25T11:20:59.739Z,52.262001
2022-11-25T11:22:08.296Z,52.277
2022-11-25T11:23:16.856Z,52.277
2022-11-25T11:24:26.448Z,52.283001
2022-11-25T11:25:35.998Z,52.289001
2022-11-25T11:26:43.591Z,52.266998
2022-11-25T11:27:52.182Z,52.278999
2022-11-25T11:29:01.746Z,52.236
2022-11-25T11:30:11.360Z,52.249001
2022-11-25T11:31:20.002Z,52.261002
2022-11-25T11:32:28.509Z,52.255001
2022-11-25T11:33:37.083Z,52.272999
2022-11-25T11:34:46.644Z,52.261002
2022-11-25T11:35:55.210Z,52.261002
2022-11-25T11:37:03.778Z,52.249001
2022-11-25T11:38:13.346Z,52.236
2022-11-25T11:39:22.900Z,52.242001
2022-11-25T11:40:31.513Z,52.255001
2022-11-25T11:41:41.064Z,52.242001
2022-11-25T11:42:49.633Z,52.223999
2022-11-25T11:43:59.194Z,52.223999
2022-11-25T11:45:06.786Z,52.236
2022-11-25T11:46:14.394Z,52.236
2022-11-25T11:47:23.911Z,52.223999
2022-11-25T11:48:32.535Z,52.348
2022-11-25T11:49:41.092Z,52.242001
2022-11-25T11:50:49.698Z,52.173
2022-11-25T11:51:58.250Z,52.194
2022-11-25T11:53:07.826Z,52.148998
2022-11-25T11:54:16.430Z,52.154999
2022-11-25T11:55:23.987Z,52.214001
2022-11-25T11:56:36.071Z,52.238998
2022-11-25T11:57:44.393Z,52.189999
2022-11-25T11:58:52.964Z,52.153
2022-11-25T12:00:00.548Z,52.129002
2022-11-25T12:01:10.189Z,52.09
2022-11-25T12:02:19.960Z,52.077999
2022-11-25T12:03:28.547Z,52.047001
2022-11-25T12:04:37.226Z,52.000999
2022-11-25T12:05:46.670Z,51.992001
2022-11-25T12:06:55.239Z,51.981998
2022-11-25T12:08:03.837Z,51.932999
2022-11-25T12:09:12.599Z,51.921001
2022-11-25T12:10:21.168Z,51.915001
2022-11-25T12:11:30.871Z,51.896999
2022-11-25T12:12:38.443Z,51.884998
2022-11-25T12:13:45.987Z,51.852001
2022-11-25T12:14:55.549Z,51.827999
2022-11-25T12:16:04.158Z,51.814999
2022-11-25T12:17:12.669Z,51.813999
2022-11-25T12:18:21.241Z,51.794998
2022-11-25T12:19:30.799Z,51.769001
2022-11-25T12:20:40.388Z,51.757
2022-11-25T12:21:47.972Z,51.731998
2022-11-25T12:22:55.576Z,51.708
2022-11-25T12:24:05.212Z,51.720001
2022-11-25T12:25:14.820Z,51.702
2022-11-25T12:26:23.469Z,51.676998
2022-11-25T12:27:32.140Z,51.665001
2022-11-25T12:28:40.672Z,51.665001
2022-11-25T12:29:50.274Z,51.659
2022-11-25T12:31:01.949Z,51.620998
2022-11-25T12:32:07.508Z,51.626999
2022-11-25T12:33:17.143Z,51.608002
2022-11-25T12:34:26.711Z,51.584
2022-11-25T12:35:35.352Z,51.577999
2022-11-25T12:36:45.331Z,51.560001
2022-11-25T12:37:52.903Z,51.541
2022-11-25T12:39:01.529Z,51.528999
2022-11-25T12:40:10.203Z,51.508999
2022-11-25T12:41:19.732Z,51.484001
2022-11-25T12:42:27.370Z,51.472
2022-11-25T12:43:34.940Z,51.459999
2022-11-25T12:44:44.636Z,51.453999
2022-11-25T12:45:54.226Z,51.436001
2022-11-25T12:47:02.821Z,51.436001
2022-11-25T12:48:13.097Z,51.417
2022-11-25T12:49:21.978Z,51.410999
2022-11-25T12:50:31.598Z,51.387001
2022-11-25T12:51:42.819Z,51.361
2022-11-25T12:52:51.417Z,51.354
2022-11-25T12:54:00.993Z,51.330002
2022-11-25T12:55:09.657Z,51.318001
2022-11-25T12:56:18.244Z,51.306
2022-11-25T12:57:25.870Z,51.286999
2022-11-25T12:58:35.515Z,51.263
2022-11-25T12:59:45.059Z,51.257
2022-11-25T13:00:52.695Z,51.224998
2022-11-25T13:02:02.472Z,51.224998
2022-11-25T13:03:14.021Z,51.194
2022-11-25T13:04:20.463Z,51.181999
2022-11-25T13:05:40.381Z,51.175999
2022-11-25T13:06:40.679Z,51.169998
2022-11-25T13:07:49.506Z,51.169998
2022-11-25T13:08:59.062Z,51.158001
2022-11-25T13:10:06.683Z,51.126999
2022-11-25T13:11:14.575Z,51.126999
2022-11-25T13:12:24.087Z,51.120998
2022-11-25T13:13:32.858Z,51.109001
2022-11-25T13:14:42.388Z,51.103001
2022-11-25T13:15:52.104Z,51.103001
2022-11-25T13:17:00.917Z,51.097
2022-11-25T13:18:09.950Z,51.091
2022-11-25T13:19:18.537Z,51.097
2022-11-25T13:20:28.128Z,51.083
2022-11-25T13:21:37.765Z,51.076
2022-11-25T13:22:46.359Z,51.057999
2022-11-25T13:23:54.940Z,51.063999
2022-11-25T13:25:03.527Z,51.057999
2022-11-25T13:26:12.100Z,51.063999
2022-11-25T13:27:22.681Z,51.068001